sensor_id;sensor_type;location;lat;lon;timestamp;pressure;altitude;pressure_sealevel;temperature;humidity
46942;BME280;32676;52.630;4.896;2023-11-19T00:00:25;102432.19;;;12.42;93.46
46942;BME280;32676;52.630;4.896;2023-11-19T00:02:52;102431.28;;;12.43;93.18
46942;BME280;32676;52.630;4.896;2023-11-19T00:05:19;102424.25;;;12.42;93.33
46942;BME280;32676;52.630;4.896;2023-11-19T00:07:45;102421.66;;;12.40;93.01
46942;BME280;32676;52.630;4.896;2023-11-19T00:10:13;102412.03;;;12.38;92.98
46942;BME280;32676;52.630;4.896;2023-11-19T00:12:45;102408.53;;;12.37;93.22
46942;BME280;32676;52.630;4.896;2023-11-19T00:15:13;102392.72;;;12.36;93.00
46942;BME280;32676;52.630;4.896;2023-11-19T00:17:40;102390.97;;;12.35;92.96
46942;BME280;32676;52.630;4.896;2023-11-19T00:20:10;102390.13;;;12.34;92.76
46942;BME280;32676;52.630;4.896;2023-11-19T00:22:37;102378.72;;;12.34;92.91
46942;BME280;32676;52.630;4.896;2023-11-19T00:25:04;102377.81;;;12.33;93.31
46942;BME280;32676;52.630;4.896;2023-11-19T00:27:31;102376.94;;;12.33;93.15
46942;BME280;32676;52.630;4.896;2023-11-19T00:29:58;102367.31;;;12.32;93.08
46942;BME280;32676;52.630;4.896;2023-11-19T00:32:26;102362.94;;;12.31;93.14
46942;BME280;32676;52.630;4.896;2023-11-19T00:34:52;102355.91;;;12.29;92.65
46942;BME280;32676;52.630;4.896;2023-11-19T00:37:19;102344.50;;;12.27;92.65
46942;BME280;32676;52.630;4.896;2023-11-19T00:39:45;102333.13;;;12.24;93.08
46942;BME280;32676;52.630;4.896;2023-11-19T00:42:12;102324.38;;;12.23;93.01
46942;BME280;32676;52.630;4.896;2023-11-19T00:44:39;102306.84;;;12.21;92.75
46942;BME280;32676;52.630;4.896;2023-11-19T00:47:06;102296.34;;;12.19;92.41
46942;BME280;32676;52.630;4.896;2023-11-19T00:49:34;102289.31;;;12.17;92.60
46942;BME280;32676;52.630;4.896;2023-11-19T00:52:00;102285.84;;;12.16;92.47
46942;BME280;32676;52.630;4.896;2023-11-19T00:54:27;102277.09;;;12.14;92.40
46942;BME280;32676;52.630;4.896;2023-11-19T00:56:54;102243.94;;;12.01;92.15
46942;BME280;32676;52.630;4.896;2023-11-19T00:59:20;102250.84;;;12.08;92.30
46942;BME280;32676;52.630;4.896;2023-11-19T01:01:47;102229.81;;;12.05;91.91
46942;BME280;32676;52.630;4.896;2023-11-19T01:04:14;102221.91;;;12.05;91.62
46942;BME280;32676;52.630;4.896;2023-11-19T01:06:42;102215.78;;;12.03;91.71
46942;BME280;32676;52.630;4.896;2023-11-19T01:09:08;102208.75;;;12.02;91.66
46942;BME280;32676;52.630;4.896;2023-11-19T01:11:35;102203.53;;;11.99;91.80
46942;BME280;32676;52.630;4.896;2023-11-19T01:14:02;102194.75;;;12.00;91.41
46942;BME280;32676;52.630;4.896;2023-11-19T01:16:28;102193.88;;;11.99;91.14
46942;BME280;32676;52.630;4.896;2023-11-19T01:18:55;102180.78;;;11.95;91.47
46942;BME280;32676;52.630;4.896;2023-11-19T01:21:21;102188.63;;;11.98;91.51
46942;BME280;32676;52.630;4.896;2023-11-19T01:23:49;102204.41;;;12.01;91.45
46942;BME280;32676;52.630;4.896;2023-11-19T01:26:15;102195.63;;;12.00;91.29
46942;BME280;32676;52.630;4.896;2023-11-19T01:28:42;102212.22;;;12.05;91.39
46942;BME280;32676;52.630;4.896;2023-11-19T01:31:10;102211.34;;;12.05;90.98
46942;BME280;32676;52.630;4.896;2023-11-19T01:33:38;102205.25;;;12.03;90.93
46942;BME280;32676;52.630;4.896;2023-11-19T01:36:05;102204.34;;;12.02;91.48
46942;BME280;32676;52.630;4.896;2023-11-19T01:38:33;102205.25;;;12.03;91.01
46942;BME280;32676;52.630;4.896;2023-11-19T01:41:01;102199.97;;;12.03;91.22
46942;BME280;32676;52.630;4.896;2023-11-19T01:43:32;102203.44;;;12.05;91.32
46942;BME280;32676;52.630;4.896;2023-11-19T01:45:59;102204.31;;;12.05;91.10
46942;BME280;32676;52.630;4.896;2023-11-19T01:48:26;102211.34;;;12.06;91.23
46942;BME280;32676;52.630;4.896;2023-11-19T01:50:52;102199.97;;;12.03;91.78
46942;BME280;32676;52.630;4.896;2023-11-19T01:53:19;102209.56;;;12.07;91.66
46942;BME280;32676;52.630;4.896;2023-11-19T01:55:46;102199.03;;;12.05;91.85
46942;BME280;32676;52.630;4.896;2023-11-19T01:58:15;102198.19;;;12.05;91.41
46942;BME280;32676;52.630;4.896;2023-11-19T02:00:42;102186.81;;;12.03;91.69
46942;BME280;32676;52.630;4.896;2023-11-19T02:03:11;102185.91;;;12.04;91.92
46942;BME280;32676;52.630;4.896;2023-11-19T02:05:38;102191.16;;;12.04;91.49
46942;BME280;32676;52.630;4.896;2023-11-19T02:08:05;102192.91;;;12.05;91.30
46942;BME280;32676;52.630;4.896;2023-11-19T02:10:32;102184.16;;;12.03;91.28
46942;BME280;32676;52.630;4.896;2023-11-19T02:12:58;102178.91;;;12.03;91.49
46942;BME280;32676;52.630;4.896;2023-11-19T02:15:26;102178.94;;;12.00;91.12
46942;BME280;32676;52.630;4.896;2023-11-19T02:17:53;102172.78;;;12.01;90.91
46942;BME280;32676;52.630;4.896;2023-11-19T02:20:20;102171.88;;;12.02;91.23
46942;BME280;32676;52.630;4.896;2023-11-19T02:22:46;102163.13;;;12.00;90.94
46942;BME280;32676;52.630;4.896;2023-11-19T02:25:17;102166.66;;;11.99;90.82
46942;BME280;32676;52.630;4.896;2023-11-19T02:27:51;102150.00;;;11.97;90.85
46942;BME280;32676;52.630;4.896;2023-11-19T02:30:20;102129.84;;;11.96;90.67
46942;BME280;32676;52.630;4.896;2023-11-19T02:32:51;102127.25;;;11.93;91.01
46942;BME280;32676;52.630;4.896;2023-11-19T02:35:18;102126.38;;;11.94;90.77
46942;BME280;32676;52.630;4.896;2023-11-19T02:37:44;102116.75;;;11.91;90.37
46942;BME280;32676;52.630;4.896;2023-11-19T02:40:11;102108.81;;;11.89;90.40
46942;BME280;32676;52.630;4.896;2023-11-19T02:42:38;102097.44;;;11.89;90.49
46942;BME280;32676;52.630;4.896;2023-11-19T02:45:08;102094.81;;;11.87;90.36
46942;BME280;32676;52.630;4.896;2023-11-19T02:47:39;102084.34;;;11.84;90.36
46942;BME280;32676;52.630;4.896;2023-11-19T02:50:06;102077.34;;;11.83;90.27
46942;BME280;32676;52.630;4.896;2023-11-19T02:52:39;102071.22;;;11.83;90.14
46942;BME280;32676;52.630;4.896;2023-11-19T02:55:06;102063.34;;;11.81;89.93
46942;BME280;32676;52.630;4.896;2023-11-19T02:57:35;102054.53;;;11.82;89.78
46942;BME280;32676;52.630;4.896;2023-11-19T03:00:02;102040.59;;;11.77;89.84
46942;BME280;32676;52.630;4.896;2023-11-19T03:05:10;102038.84;;;11.76;89.53
46942;BME280;32676;52.630;4.896;2023-11-19T03:07:36;102028.31;;;11.75;89.06
46942;BME280;32676;52.630;4.896;2023-11-19T03:10:03;102022.19;;;11.76;89.07
46942;BME280;32676;52.630;4.896;2023-11-19T03:12:31;102016.09;;;11.72;88.60
46942;BME280;32676;52.630;4.896;2023-11-19T03:14:57;102019.56;;;11.74;88.50
46942;BME280;32676;52.630;4.896;2023-11-19T03:17:23;102019.56;;;11.74;88.14
46942;BME280;32676;52.630;4.896;2023-11-19T03:19:51;102006.44;;;11.72;88.30
46942;BME280;32676;52.630;4.896;2023-11-19T03:22:18;102008.19;;;11.72;87.87
46942;BME280;32676;52.630;4.896;2023-11-19T03:24:46;102007.28;;;11.73;87.90
46942;BME280;32676;52.630;4.896;2023-11-19T03:27:12;102005.56;;;11.72;87.75
46942;BME280;32676;52.630;4.896;2023-11-19T03:29:39;102006.44;;;11.72;87.64
46942;BME280;32676;52.630;4.896;2023-11-19T03:32:05;102000.31;;;11.72;87.85
46942;BME280;32676;52.630;4.896;2023-11-19T03:34:32;102000.31;;;11.72;87.87
46942;BME280;32676;52.630;4.896;2023-11-19T03:37:00;102000.31;;;11.72;87.68
46942;BME280;32676;52.630;4.896;2023-11-19T03:39:26;102007.28;;;11.73;87.50
46942;BME280;32676;52.630;4.896;2023-11-19T03:41:53;102002.00;;;11.73;87.16
46942;BME280;32676;52.630;4.896;2023-11-19T03:44:19;102003.78;;;11.74;86.98
46942;BME280;32676;52.630;4.896;2023-11-19T03:46:46;102005.53;;;11.75;86.69
46942;BME280;32676;52.630;4.896;2023-11-19T03:49:13;101998.50;;;11.74;86.85
46942;BME280;32676;52.630;4.896;2023-11-19T03:51:39;102001.13;;;11.74;86.57
46942;BME280;32676;52.630;4.896;2023-11-19T03:54:07;101994.13;;;11.73;86.86
46942;BME280;32676;52.630;4.896;2023-11-19T03:56:34;101988.00;;;11.71;86.87
46942;BME280;32676;52.630;4.896;2023-11-19T03:59:00;101980.13;;;11.69;86.34
46942;BME280;32676;52.630;4.896;2023-11-19T04:01:27;101959.16;;;11.66;86.32
46942;BME280;32676;52.630;4.896;2023-11-19T04:03:54;101946.00;;;11.65;86.30
46942;BME280;32676;52.630;4.896;2023-11-19T04:06:21;101946.06;;;11.62;86.29
46942;BME280;32676;52.630;4.896;2023-11-19T04:08:47;101936.44;;;11.61;86.60
46942;BME280;32676;52.630;4.896;2023-11-19T04:11:16;101934.69;;;11.61;86.14
46942;BME280;32676;52.630;4.896;2023-11-19T04:13:42;101926.81;;;11.60;86.50
46942;BME280;32676;52.630;4.896;2023-11-19T04:16:09;101923.28;;;11.61;86.24
46942;BME280;32676;52.630;4.896;2023-11-19T04:18:35;101921.53;;;11.60;86.13
46942;BME280;32676;52.630;4.896;2023-11-19T04:21:05;101919.75;;;11.60;85.91
46942;BME280;32676;52.630;4.896;2023-11-19T04:23:32;101922.38;;;11.60;85.81
46942;BME280;32676;52.630;4.896;2023-11-19T04:26:02;101911.97;;;11.56;85.83
46942;BME280;32676;52.630;4.896;2023-11-19T04:28:30;101930.28;;;11.62;85.79
46942;BME280;32676;52.630;4.896;2023-11-19T04:30:57;101925.03;;;11.60;85.50
46942;BME280;32676;52.630;4.896;2023-11-19T04:33:24;101927.63;;;11.62;85.57
46942;BME280;32676;52.630;4.896;2023-11-19T04:35:50;101937.19;;;11.66;85.45
46942;BME280;32676;52.630;4.896;2023-11-19T04:38:17;101945.97;;;11.68;85.82
46942;BME280;32676;52.630;4.896;2023-11-19T04:40:43;101956.41;;;11.71;85.35
46942;BME280;32676;52.630;4.896;2023-11-19T04:43:10;101956.41;;;11.71;85.65
46942;BME280;32676;52.630;4.896;2023-11-19T04:45:38;101962.59;;;11.70;85.51
46942;BME280;32676;52.630;4.896;2023-11-19T04:48:04;101958.16;;;11.72;85.18
46942;BME280;32676;52.630;4.896;2023-11-19T04:50:31;101952.91;;;11.72;85.46
46942;BME280;32676;52.630;4.896;2023-11-19T04:52:57;101952.91;;;11.72;84.98
46942;BME280;32676;52.630;4.896;2023-11-19T04:55:25;101943.38;;;11.65;85.08
46942;BME280;32676;52.630;4.896;2023-11-19T04:57:54;101931.09;;;11.64;84.88
46942;BME280;32676;52.630;4.896;2023-11-19T05:00:20;101924.09;;;11.64;85.05
46942;BME280;32676;52.630;4.896;2023-11-19T05:02:49;101921.41;;;11.66;84.33
46942;BME280;32676;52.630;4.896;2023-11-19T05:05:15;101914.44;;;11.63;84.68
46942;BME280;32676;52.630;4.896;2023-11-19T05:07:41;101910.94;;;11.63;84.18
46942;BME280;32676;52.630;4.896;2023-11-19T05:10:08;101905.69;;;11.63;83.97
46942;BME280;32676;52.630;4.896;2023-11-19T05:12:35;101902.13;;;11.64;84.12
46942;BME280;32676;52.630;4.896;2023-11-19T05:15:01;101893.41;;;11.62;84.00
46942;BME280;32676;52.630;4.896;2023-11-19T05:17:28;101891.69;;;11.61;83.89
46942;BME280;32676;52.630;4.896;2023-11-19T05:19:55;101885.53;;;11.60;83.82
46942;BME280;32676;52.630;4.896;2023-11-19T05:22:22;101875.91;;;11.59;83.64
46942;BME280;32676;52.630;4.896;2023-11-19T05:24:48;101882.06;;;11.58;83.48
46942;BME280;32676;52.630;4.896;2023-11-19T05:27:15;101877.66;;;11.59;83.73
46942;BME280;32676;52.630;4.896;2023-11-19T05:29:41;101891.69;;;11.61;83.33
46942;BME280;32676;52.630;4.896;2023-11-19T05:32:08;101882.03;;;11.60;83.38
46942;BME280;32676;52.630;4.896;2023-11-19T05:34:35;101881.22;;;11.58;83.62
46942;BME280;32676;52.630;4.896;2023-11-19T05:37:03;101881.16;;;11.61;83.63
46942;BME280;32676;52.630;4.896;2023-11-19T05:39:30;101889.91;;;11.63;83.66
46942;BME280;32676;52.630;4.896;2023-11-19T05:41:57;101888.16;;;11.62;83.87
46942;BME280;32676;52.630;4.896;2023-11-19T05:44:24;101900.34;;;11.66;83.39
46942;BME280;32676;52.630;4.896;2023-11-19T05:46:50;101900.34;;;11.66;83.78
46942;BME280;32676;52.630;4.896;2023-11-19T05:49:17;101888.94;;;11.65;83.44
46942;BME280;32676;52.630;4.896;2023-11-19T05:51:43;101885.47;;;11.63;83.51
46942;BME280;32676;52.630;4.896;2023-11-19T05:54:12;101871.50;;;11.60;83.01
46942;BME280;32676;52.630;4.896;2023-11-19T05:56:39;101850.56;;;11.55;83.32
46942;BME280;32676;52.630;4.896;2023-11-19T05:59:06;101856.66;;;11.57;83.47
46942;BME280;32676;52.630;4.896;2023-11-19T06:01:40;101847.88;;;11.57;83.39
46942;BME280;32676;52.630;4.896;2023-11-19T06:04:07;101846.16;;;11.56;83.76
46942;BME280;32676;52.630;4.896;2023-11-19T06:06:33;101840.06;;;11.53;83.80
46942;BME280;32676;52.630;4.896;2023-11-19T06:09:00;101840.91;;;11.56;83.88
46942;BME280;32676;52.630;4.896;2023-11-19T06:11:28;101847.88;;;11.57;84.23
46942;BME280;32676;52.630;4.896;2023-11-19T06:13:55;101847.88;;;11.57;84.22
46942;BME280;32676;52.630;4.896;2023-11-19T06:16:22;101859.22;;;11.59;83.68
46942;BME280;32676;52.630;4.896;2023-11-19T06:18:49;101858.34;;;11.60;84.17
46942;BME280;32676;52.630;4.896;2023-11-19T06:21:15;101858.31;;;11.61;83.90
46942;BME280;32676;52.630;4.896;2023-11-19T06:23:42;101855.72;;;11.60;84.04
46942;BME280;32676;52.630;4.896;2023-11-19T06:26:08;101843.50;;;11.57;84.49
46942;BME280;32676;52.630;4.896;2023-11-19T06:28:36;101828.63;;;11.55;84.26
46942;BME280;32676;52.630;4.896;2023-11-19T06:31:03;101835.63;;;11.56;83.93
46942;BME280;32676;52.630;4.896;2023-11-19T06:33:30;101817.22;;;11.54;84.21
46942;BME280;32676;52.630;4.896;2023-11-19T06:35:56;101812.00;;;11.52;83.57
46942;BME280;32676;52.630;4.896;2023-11-19T06:38:22;101791.97;;;11.45;83.60
46942;BME280;32676;52.630;4.896;2023-11-19T06:40:49;101783.19;;;11.46;83.66
46942;BME280;32676;52.630;4.896;2023-11-19T06:43:15;101772.69;;;11.43;83.20
46942;BME280;32676;52.630;4.896;2023-11-19T06:45:44;101754.34;;;11.39;83.34
46942;BME280;32676;52.630;4.896;2023-11-19T06:48:10;101732.53;;;11.35;83.47
46942;BME280;32676;52.630;4.896;2023-11-19T06:50:37;101727.28;;;11.35;83.14
46942;BME280;32676;52.630;4.896;2023-11-19T06:53:03;101713.34;;;11.30;83.45
46942;BME280;32676;52.630;4.896;2023-11-19T06:55:31;101704.63;;;11.28;83.06
46942;BME280;32676;52.630;4.896;2023-11-19T06:57:59;101701.06;;;11.29;83.47
46942;BME280;32676;52.630;4.896;2023-11-19T07:00:27;101692.34;;;11.27;83.54
46942;BME280;32676;52.630;4.896;2023-11-19T07:02:55;101696.72;;;11.28;83.34
46942;BME280;32676;52.630;4.896;2023-11-19T07:05:21;101699.34;;;11.28;83.22
46942;BME280;32676;52.630;4.896;2023-11-19T07:07:48;101693.19;;;11.29;83.52
46942;BME280;32676;52.630;4.896;2023-11-19T07:10:15;101687.94;;;11.27;83.54
46942;BME280;32676;52.630;4.896;2023-11-19T07:12:41;101688.84;;;11.28;84.34
46942;BME280;32676;52.630;4.896;2023-11-19T07:15:09;101696.66;;;11.29;84.10
46942;BME280;32676;52.630;4.896;2023-11-19T07:17:35;101715.84;;;11.34;84.67
46942;BME280;32676;52.630;4.896;2023-11-19T07:20:05;101728.94;;;11.39;84.63
46942;BME280;32676;52.630;4.896;2023-11-19T07:22:31;101735.09;;;11.37;84.69
46942;BME280;32676;52.630;4.896;2023-11-19T07:24:58;101760.38;;;11.45;84.75
46942;BME280;32676;52.630;4.896;2023-11-19T07:27:24;101762.13;;;11.46;84.43
46942;BME280;32676;52.630;4.896;2023-11-19T07:29:51;101757.75;;;11.45;84.51
46942;BME280;32676;52.630;4.896;2023-11-19T07:32:17;101763.84;;;11.47;84.73
46942;BME280;32676;52.630;4.896;2023-11-19T07:34:44;101768.25;;;11.47;84.34
46942;BME280;32676;52.630;4.896;2023-11-19T07:37:11;101763.84;;;11.47;84.46
46942;BME280;32676;52.630;4.896;2023-11-19T07:39:38;101762.09;;;11.48;84.16
46942;BME280;32676;52.630;4.896;2023-11-19T07:42:06;101767.28;;;11.49;84.15
46942;BME280;32676;52.630;4.896;2023-11-19T07:44:32;101784.78;;;11.53;84.14
46942;BME280;32676;52.630;4.896;2023-11-19T07:46:59;101821.50;;;11.60;84.00
46942;BME280;32676;52.630;4.896;2023-11-19T07:49:26;101846.81;;;11.67;84.03
46942;BME280;32676;52.630;4.896;2023-11-19T07:51:52;101866.84;;;11.74;83.84
46942;BME280;32676;52.630;4.896;2023-11-19T07:54:20;101893.03;;;11.80;83.21
46942;BME280;32676;52.630;4.896;2023-11-19T07:56:47;101915.81;;;11.84;83.18
46942;BME280;32676;52.630;4.896;2023-11-19T07:59:14;101925.44;;;11.84;83.04
46942;BME280;32676;52.630;4.896;2023-11-19T08:01:41;101950.78;;;11.93;83.06
46942;BME280;32676;52.630;4.896;2023-11-19T08:04:07;101959.50;;;11.95;82.64
46942;BME280;32676;52.630;4.896;2023-11-19T08:06:34;101961.25;;;11.96;82.50
46942;BME280;32676;52.630;4.896;2023-11-19T08:09:00;101970.00;;;11.98;82.18
46942;BME280;32676;52.630;4.896;2023-11-19T08:11:28;101973.47;;;12.00;82.03
46942;BME280;32676;52.630;4.896;2023-11-19T08:13:54;101980.47;;;12.01;81.53
46942;BME280;32676;52.630;4.896;2023-11-19T08:16:21;101971.72;;;11.99;81.68
46942;BME280;32676;52.630;4.896;2023-11-19T08:18:47;101963.81;;;11.99;81.17
46942;BME280;32676;52.630;4.896;2023-11-19T08:21:14;101955.13;;;11.95;81.09
46942;BME280;32676;52.630;4.896;2023-11-19T08:23:40;101941.97;;;11.94;81.40
46942;BME280;32676;52.630;4.896;2023-11-19T08:26:07;101952.53;;;11.94;81.41
46942;BME280;32676;52.630;4.896;2023-11-19T08:28:35;101961.16;;;11.99;81.39
46942;BME280;32676;52.630;4.896;2023-11-19T08:31:01;101978.69;;;12.03;81.41
46942;BME280;32676;52.630;4.896;2023-11-19T08:33:29;101997.00;;;12.07;81.08
46942;BME280;32676;52.630;4.896;2023-11-19T08:35:55;102021.47;;;12.14;81.37
46942;BME280;32676;52.630;4.896;2023-11-19T08:38:22;102041.59;;;12.18;81.41
46942;BME280;32676;52.630;4.896;2023-11-19T08:40:49;102060.81;;;12.23;81.27
46942;BME280;32676;52.630;4.896;2023-11-19T08:43:15;102089.69;;;12.29;80.71
46942;BME280;32676;52.630;4.896;2023-11-19T08:45:43;102111.56;;;12.35;80.88
46942;BME280;32676;52.630;4.896;2023-11-19T08:48:10;102135.19;;;12.41;80.49
46942;BME280;32676;52.630;4.896;2023-11-19T08:50:36;102147.41;;;12.45;80.59
46942;BME280;32676;52.630;4.896;2023-11-19T08:53:02;102178.94;;;12.49;80.78
46942;BME280;32676;52.630;4.896;2023-11-19T08:55:31;102182.44;;;12.52;80.37
46942;BME280;32676;52.630;4.896;2023-11-19T08:57:58;102183.31;;;12.51;80.08
46942;BME280;32676;52.630;4.896;2023-11-19T09:00:24;102195.53;;;12.56;79.94
46942;BME280;32676;52.630;4.896;2023-11-19T09:02:52;102197.31;;;12.54;80.21
46942;BME280;32676;52.630;4.896;2023-11-19T09:05:18;102202.56;;;12.57;80.21
46942;BME280;32676;52.630;4.896;2023-11-19T09:07:45;102210.38;;;12.60;80.03
46942;BME280;32676;52.630;4.896;2023-11-19T09:10:11;102223.53;;;12.63;80.28
46942;BME280;32676;52.630;4.896;2023-11-19T09:12:38;102227.91;;;12.64;80.43
46942;BME280;32676;52.630;4.896;2023-11-19T09:15:05;102258.53;;;12.72;80.23
46942;BME280;32676;52.630;4.896;2023-11-19T09:17:32;102284.81;;;12.78;80.21
46942;BME280;32676;52.630;4.896;2023-11-19T09:20:01;102307.53;;;12.85;80.24
46942;BME280;32676;52.630;4.896;2023-11-19T09:22:27;102318.91;;;12.89;80.50
46942;BME280;32676;52.630;4.896;2023-11-19T09:24:54;102341.72;;;12.91;79.92
46942;BME280;32676;52.630;4.896;2023-11-19T09:27:20;102338.19;;;12.92;80.14
46942;BME280;32676;52.630;4.896;2023-11-19T09:29:46;102333.78;;;12.91;79.74
46942;BME280;32676;52.630;4.896;2023-11-19T09:32:15;102327.63;;;12.92;79.74
46942;BME280;32676;52.630;4.896;2023-11-19T09:34:41;102309.25;;;12.86;79.34
46942;BME280;32676;52.630;4.896;2023-11-19T09:37:09;102284.94;;;12.72;79.42
46942;BME280;32676;52.630;4.896;2023-11-19T09:39:35;102291.72;;;12.85;79.37
46942;BME280;32676;52.630;4.896;2023-11-19T09:42:02;102303.97;;;12.86;79.27
46942;BME280;32676;52.630;4.896;2023-11-19T09:44:29;102323.25;;;12.91;79.69
46942;BME280;32676;52.630;4.896;2023-11-19T09:46:57;102328.50;;;12.93;79.84
46942;BME280;32676;52.630;4.896;2023-11-19T09:49:26;102339.88;;;12.95;79.50
46942;BME280;32676;52.630;4.896;2023-11-19T09:51:53;102333.75;;;12.94;79.37
46942;BME280;32676;52.630;4.896;2023-11-19T09:54:21;102338.09;;;12.97;79.78
46942;BME280;32676;52.630;4.896;2023-11-19T09:56:47;102353.00;;;12.99;79.30
46942;BME280;32676;52.630;4.896;2023-11-19T09:59:14;102342.47;;;12.99;79.41
46942;BME280;32676;52.630;4.896;2023-11-19T10:01:41;102351.22;;;13.01;79.39
46942;BME280;32676;52.630;4.896;2023-11-19T10:04:09;102359.09;;;13.03;79.73
46942;BME280;32676;52.630;4.896;2023-11-19T10:06:36;102365.25;;;13.03;79.64
46942;BME280;32676;52.630;4.896;2023-11-19T10:09:02;102372.19;;;13.07;79.81
46942;BME280;32676;52.630;4.896;2023-11-19T10:11:31;102379.25;;;13.09;79.55
46942;BME280;32676;52.630;4.896;2023-11-19T10:13:59;102388.84;;;13.11;79.77
46942;BME280;32676;52.630;4.896;2023-11-19T10:16:28;102395.88;;;13.12;79.47
46942;BME280;32676;52.630;4.896;2023-11-19T10:18:55;102384.47;;;13.12;79.53
46942;BME280;32676;52.630;4.896;2023-11-19T10:21:22;102404.63;;;13.16;79.39
46942;BME280;32676;52.630;4.896;2023-11-19T10:23:49;102421.25;;;13.21;79.47
46942;BME280;32676;52.630;4.896;2023-11-19T10:26:17;102426.47;;;13.24;79.27
46942;BME280;32676;52.630;4.896;2023-11-19T10:28:46;102422.97;;;13.22;78.99
46942;BME280;32676;52.630;4.896;2023-11-19T10:31:13;102430.00;;;13.23;78.72
46942;BME280;32676;52.630;4.896;2023-11-19T10:33:39;102451.06;;;13.26;77.96
46942;BME280;32676;52.630;4.896;2023-11-19T10:36:07;102475.59;;;13.34;78.00
46942;BME280;32676;52.630;4.896;2023-11-19T10:38:33;102506.28;;;13.43;77.68
46942;BME280;32676;52.630;4.896;2023-11-19T10:41:00;102528.22;;;13.47;77.22
46942;BME280;32676;52.630;4.896;2023-11-19T10:43:26;102540.47;;;13.51;77.26
46942;BME280;32676;52.630;4.896;2023-11-19T10:46:08;102540.47;;;13.51;76.99
46942;BME280;32676;52.630;4.896;2023-11-19T10:48:35;102547.50;;;13.52;76.92
46942;BME280;32676;52.630;4.896;2023-11-19T10:51:05;102561.47;;;13.57;77.15
46942;BME280;32676;52.630;4.896;2023-11-19T10:53:33;102586.03;;;13.62;76.83
46942;BME280;32676;52.630;4.896;2023-11-19T10:56:02;102614.09;;;13.69;76.62
46942;BME280;32676;52.630;4.896;2023-11-19T10:58:32;102629.91;;;13.74;75.94
46942;BME280;32676;52.630;4.896;2023-11-19T11:01:01;102650.94;;;13.78;75.43
46942;BME280;32676;52.630;4.896;2023-11-19T11:03:31;102647.41;;;13.79;75.28
46942;BME280;32676;52.630;4.896;2023-11-19T11:06:03;102656.19;;;13.81;75.08
46942;BME280;32676;52.630;4.896;2023-11-19T11:08:30;102650.91;;;13.81;74.93
46942;BME280;32676;52.630;4.896;2023-11-19T11:10:57;102668.44;;;13.86;75.04
46942;BME280;32676;52.630;4.896;2023-11-19T11:13:26;102674.63;;;13.86;75.33
46942;BME280;32676;52.630;4.896;2023-11-19T11:15:55;102679.91;;;13.86;75.34
46942;BME280;32676;52.630;4.896;2023-11-19T11:18:24;102659.66;;;13.83;75.34
46942;BME280;32676;52.630;4.896;2023-11-19T11:20:53;102652.66;;;13.82;74.97
46942;BME280;32676;52.630;4.896;2023-11-19T11:26:35;102628.94;;;13.78;74.67
46942;BME280;32676;52.630;4.896;2023-11-19T11:29:16;102608.75;;;13.75;74.31
46942;BME280;32676;52.630;4.896;2023-11-19T11:31:52;102601.69;;;13.74;74.04
46942;BME280;32676;52.630;4.896;2023-11-19T11:34:45;102591.16;;;13.71;74.12
46942;BME280;32676;52.630;4.896;2023-11-19T11:37:18;102557.81;;;13.64;73.96
46942;BME280;32676;52.630;4.896;2023-11-19T11:39:45;102529.72;;;13.60;74.11
46942;BME280;32676;52.630;4.896;2023-11-19T11:42:31;102496.41;;;13.53;74.25
46942;BME280;32676;52.630;4.896;2023-11-19T11:44:58;102487.63;;;13.51;75.17
46942;BME280;32676;52.630;4.896;2023-11-19T11:47:25;102495.53;;;13.52;75.33
46942;BME280;32676;52.630;4.896;2023-11-19T11:49:53;102483.22;;;13.51;75.54
46942;BME280;32676;52.630;4.896;2023-11-19T11:52:20;102482.34;;;13.51;75.62
46942;BME280;32676;52.630;4.896;2023-11-19T11:54:47;102493.78;;;13.51;75.96
46942;BME280;32676;52.630;4.896;2023-11-19T11:57:13;102483.19;;;13.53;75.94
46942;BME280;32676;52.630;4.896;2023-11-19T11:59:50;102489.31;;;13.55;75.56
46942;BME280;32676;52.630;4.896;2023-11-19T12:02:18;102494.59;;;13.55;75.51
46942;BME280;32676;52.630;4.896;2023-11-19T12:04:50;102483.19;;;13.53;75.46
46942;BME280;32676;52.630;4.896;2023-11-19T12:07:20;102485.78;;;13.56;75.32
46942;BME280;32676;52.630;4.896;2023-11-19T12:09:48;102504.22;;;13.59;75.65
46942;BME280;32676;52.630;4.896;2023-11-19T12:12:21;102499.84;;;13.58;75.77
46942;BME280;32676;52.630;4.896;2023-11-19T12:15:05;102502.47;;;13.59;75.72
46942;BME280;32676;52.630;4.896;2023-11-19T12:17:47;102491.06;;;13.56;76.44
46942;BME280;32676;52.630;4.896;2023-11-19T12:20:17;102492.78;;;13.57;77.53
46942;BME280;32676;52.630;4.896;2023-11-19T12:22:46;102464.72;;;13.53;77.40
46942;BME280;32676;52.630;4.896;2023-11-19T12:25:15;102455.09;;;13.50;77.24
46942;BME280;32676;52.630;4.896;2023-11-19T12:27:44;102448.06;;;13.48;76.92
46942;BME280;32676;52.630;4.896;2023-11-19T12:30:11;102439.28;;;13.47;76.99
46942;BME280;32676;52.630;4.896;2023-11-19T12:32:40;102428.72;;;13.47;76.82
46942;BME280;32676;52.630;4.896;2023-11-19T12:35:07;102434.88;;;13.48;76.80
46942;BME280;32676;52.630;4.896;2023-11-19T12:37:39;102426.09;;;13.46;76.23
46942;BME280;32676;52.630;4.896;2023-11-19T12:40:13;102438.34;;;13.50;76.53
46942;BME280;32676;52.630;4.896;2023-11-19T12:42:40;102436.63;;;13.49;76.25
46942;BME280;32676;52.630;4.896;2023-11-19T12:45:07;102429.59;;;13.48;75.84
46942;BME280;32676;52.630;4.896;2023-11-19T12:47:35;102424.31;;;13.48;75.92
46942;BME280;32676;52.630;4.896;2023-11-19T12:50:02;102402.41;;;13.42;75.78
46942;BME280;32676;52.630;4.896;2023-11-19T12:52:29;102377.06;;;13.32;75.30
46942;BME280;32676;52.630;4.896;2023-11-19T12:54:55;102378.69;;;13.39;75.02
46942;BME280;32676;52.630;4.896;2023-11-19T12:57:37;102368.19;;;13.36;74.72